Tiempo atmosférico en la estación meteorológica de Belmonte, Cuenca (800 m.)



Fecha
DESCASC
Temp. máxima en grados centígrados (hora)
DESCASC
Temp. mínima en grados centígrados (hora)
DESCASC
Temp. media en grados centígrados
DESCASC
Racha de viento máxima en m/sg (hora)
DESCASC
Velocidad máxima media en intervalos de 10 minutos(hora)
DESCASC
Precipitaciones diarias en mm
DESCASC
Precipitaciones de 00:00 a 06:00 en mm
DESCASC
Precipitaciones de 06:00 a 12:00 en mm
DESCASC
Precipitaciones de 12:00 a 18:00 en mm
DESCASC
Precipitaciones de 18:00 a 24:00 en mm
DESCASC
23-05-2018 26.9 (15:50) 14.9 (06:00) 20.9 7.78 (16:50) 4.72 (01:20) 1.6 0 0 1.4 0.2
22-05-2018 27.5 (18:10) 10 (07:30) 18.8 8.89 (23:40) 5 (23:59) 0 0 0 0 0
21-05-2018 24.3 (15:50) 12.9 (04:30) 18.6 8.33 (18:40) 4.72 (18:40) 0 0 0 0 0
20-05-2018 23.2 (17:00) 13.2 (00:00) 18.2 9.44 (16:10) 3.89 (00:10) 1.4 0 1.4 0 0
19-05-2018 23.5 (18:30) 11.9 (00:00) 17.7 7.22 (23:59) 3.89 (22:30) 0 0 0 0 0
18-05-2018 23.6 (15:00) 11.3 (00:00) 17.5 10.28 (15:40) 5.28 (01:30) 0 0 0 0 0
17-05-2018 24.1 (17:10) 11.6 (00:00) 17.9 9.44 (17:30) 5 (17:30) 0 0 0 0 0
16-05-2018 23.9 (17:10) 11.6 (00:00) 17.8 9.17 (00:50) 5.56 (03:20) 0 0 0 0 0
15-05-2018 23.8 (19:00) 6.6 (00:00) 15.2 7.22 (02:40) 4.17 (02:40) 0 0 0 0 0
14-05-2018 20.5 (15:30) 7.3 (00:00) 13.9 9.17 (16:50) 5 (16:50) 0 0 0 0 0
13-05-2018 19.1 (17:00) 5 (00:00) 12.1 8.89 (14:30) 4.44 (11:50) 0 0 0 0 0
12-05-2018 22.2 (14:10) 11.5 (00:00) 16.9 11.39 (17:20) 5.28 (15:30) 0 0 0 0 0
11-05-2018 26.4 (17:40) 10.9 (07:20) 18.6 7.5 (06:30) 4.72 (06:10) 0 0 0 0 0
10-05-2018 25 (19:00) 13.8 (00:00) 19.4 10.28 (20:50) 5.83 (20:50) 0.6 0 0 0.6 0
09-05-2018 26.2 (14:20) 10.7 (00:00) 18.5 8.61 (17:20) 4.17 (17:20) 2.4 0 0.2 0 2.2
08-05-2018 25.6 (16:40) 12.1 (00:00) 18.9 14.17 (17:00) 6.39 (17:00) 2.2 0 0 2.2 0
07-05-2018 25.7 (17:20) 10.8 (00:00) 18.3 7.78 (13:40) 3.61 (00:10) 0 0 0 0 0
06-05-2018 22.8 (16:40) 10.5 (00:00) 16.6 8.61 (18:40) 4.72 (22:40) 0.2 0.2 0 0 0
05-05-2018 24.5 (17:40) 11.2 (00:00) 17.8 10.28 (18:20) 6.11 (22:00) 3 0 0 0 3
04-05-2018 21.3 (17:30) 4.8 (00:00) 13 7.22 (00:30) 4.17 (04:00) 0 0 0 0 0
03-05-2018 19.8 (17:30) 7 (00:00) 13.4 8.89 (16:50) 4.72 (16:40) 0 0 0 0 0
02-05-2018 19 (16:50) 3.2 (00:00) 11.1 8.89 (13:10) 4.44 (17:00) 0 0 0 0 0
01-05-2018 17 (18:00) 1.6 (07:40) 9.3 7.5 (14:20) 3.89 (14:20) 0 0 0 0 0
30-04-2018 13.4 (15:00) 4.1 (00:00) 8.7 10.56 (17:00) 4.72 (17:00) 0.6 0 0 0.2 0.4
29-04-2018 13.3 (17:40) 5.5 (00:00) 9.4 16.39 (12:40) 7.22 (17:00) 4 3 0.8 0.2 0
28-04-2018 20.9 (16:20) 9.2 (00:00) 15 10.56 (15:40) 5.28 (15:40) 0 0 0 0 0
27-04-2018 25.9 (17:20) 12.9 (00:00) 19.4 9.17 (16:30) 4.17 (17:10) 0 0 0 0 0
26-04-2018 25.3 (17:00) 10.5 (00:00) 17.9 6.67 (12:20) 3.61 (12:30) 0 0 0 0 0
25-04-2018 25.4 (13:50) 11.6 (00:00) 18.5 10 (19:30) 5.83 (19:20) 0 0 0 0 0
24-04-2018 23.7 (16:10) 12.7 (00:00) 18.2 12.78 (12:30) 7.22 (12:30) 0 0 0 0 0

Gráficas

Temp. máximas Temp. mínimas Temp. medias Precipitaciones Rachas de viento máximas Velocidades máximas media en intervalos de 10 minutos

Datos horarios

Fecha y hora oficial Temperatura (ºC) Velocidad del viento (km/h) Dirección del viento Racha (km/h) Dirección de racha Precipitación (mm) Presión (hPa) Tendencia (hPa) Humedad (%)
2018-05-23 23:00:00 19.3 3 Sudeste 10 Sudeste 0 -- -- 56
2018-05-23 22:00:00 19.8 3 Sudeste 6 Nordeste 0 -- -- 61
2018-05-23 21:00:00 21.1 2 Sudeste 6 Sur 0 -- -- 53
2018-05-23 20:00:00 21.8 4 Sudoeste 23 Sudeste 0 -- -- 54
2018-05-23 19:00:00 21.6 8 Sudeste 27 Este 0.2 -- -- 52
2018-05-23 18:00:00 21.2 6 Sudoeste 21 Sur 1.4 -- -- 56
2018-05-23 17:00:00 25.3 15 Sur 28 Sur 0 -- -- 36
2018-05-23 16:00:00 26.4 10 Sur 21 Sur 0 -- -- 31
2018-05-23 15:00:00 26.2 10 Sur 21 Sur 0 -- -- 33
2018-05-23 14:00:00 25.7 9 Sur 23 Sudeste 0 -- -- 36
2018-05-23 13:00:00 24.4 10 Sudeste 21 Sur 0 -- -- 43
2018-05-23 12:00:00 22.6 7 Sudeste 16 Sudeste 0 -- -- 49
2018-05-23 11:00:00 20.4 11 Sudeste 19 Sudeste 0 -- -- 56
2018-05-23 10:00:00 19 13 Sudeste 23 Sudeste 0 -- -- 60
2018-05-23 09:00:00 17 15 Sudeste 27 Sudeste 0 -- -- 63
2018-05-23 08:00:00 15.5 14 Sudeste 25 Sudeste 0 -- -- 68
2018-05-23 07:00:00 14.9 11 Sudeste 19 Este 0 -- -- 71
2018-05-23 06:00:00 14.9 2 Sudeste 7 Sudeste 0 -- -- 73
2018-05-23 05:00:00 15.4 2 Noroeste 15 Sudeste 0 -- -- 72
2018-05-23 04:00:00 16.1 10 Este 24 Este 0 -- -- 70
2018-05-23 03:00:00 16.8 13 Este 22 Este 0 -- -- 67
2018-05-23 02:00:00 17.5 14 Sudeste 25 Sudeste 0 -- -- 66
2018-05-23 01:00:00 17.4 15 Este 26 Sudeste 0 -- -- 69
2018-05-23 00:00:00 17.9 18 Sudeste 32 Sudeste 0 -- -- 66
2018-05-22 23:00:00 19.9 11 Sudeste 19 Este 0 -- -- 56
2018-05-22 22:00:00 20.6 7 Nordeste 23 Nordeste 0 -- -- 54
2018-05-22 21:00:00 23.1 2 Norte 9 Noroeste 0 -- -- 42
2018-05-22 20:00:00 24.7 5 Noroeste 13 Noroeste 0 -- -- 37
2018-05-22 19:00:00 26.2 8 Noroeste 18 Noroeste 0 -- -- 35
2018-05-22 18:00:00 27.4 6 Oeste 21 Oeste 0 -- -- 33
2018-05-22 17:00:00 25.2 3 Noroeste 14 Sudoeste 0 -- -- 37
2018-05-22 16:00:00 25.3 7 Noroeste 21 Noroeste 0 -- -- 37
2018-05-22 15:00:00 23.4 5 Oeste 14 Oeste 0 -- -- 42
2018-05-22 14:00:00 23.8 4 Oeste 15 Oeste 0 -- -- 43
2018-05-22 13:00:00 22.3 5 Oeste 13 Oeste 0 -- -- 51
2018-05-22 12:00:00 20.7 4 Oeste 14 Sudoeste 0 -- -- 56
2018-05-22 11:00:00 17.9 3 Sudoeste 9 Oeste 0 -- -- 65
2018-05-22 10:00:00 16.1 4 Oeste 9 Oeste 0 -- -- 72
2018-05-22 09:00:00 13.4 3 Sur 7 Sudoeste 0 -- -- 83
2018-05-22 08:00:00 10.4 0 Calma 6 Este 0 -- -- 89
2018-05-22 07:00:00 10.4 2 Nordeste 5 Este 0 -- -- 84
2018-05-22 06:00:00 11.4 0 Calma 5 Sudeste 0 -- -- 86
2018-05-22 05:00:00 11.6 3 Sudeste 5 Sur 0 -- -- 85
2018-05-22 04:00:00 12.3 3 Sur 6 Sudeste 0 -- -- 83
2018-05-22 03:00:00 13.3 0 Calma 4 Sudeste 0 -- -- 81
2018-05-22 02:00:00 13.2 2 Sur 5 Sudeste 0 -- -- 80
2018-05-22 01:00:00 13.7 3 Sur 7 Sur 0 -- -- 77
2018-05-22 00:00:00 14.4 0 Calma 7 Sur 0 -- -- 72
2018-05-21 23:00:00 15.8 3 Sudeste 9 Sur 0 -- -- 66
2018-05-21 22:00:00 16.9 6 Sur 13 Sudeste 0 -- -- 60
2018-05-21 21:00:00 18 2 Norte 16 Norte 0 -- -- 61
2018-05-21 20:00:00 19.2 7 Norte 16 Sudeste 0 -- -- 54
2018-05-21 19:00:00 20.1 10 Sudeste 30 Este 0 -- -- 44
2018-05-21 18:00:00 23.5 6 Sudoeste 20 Sudoeste 0 -- -- 38
2018-05-21 17:00:00 23.3 9 Sudoeste 30 Sudoeste 0 -- -- 40
2018-05-21 16:00:00 23.9 10 Oeste 28 Sudoeste 0 -- -- 36
2018-05-21 15:00:00 22.9 6 Oeste 22 Oeste 0 -- -- 41
2018-05-21 14:00:00 22.2 7 Oeste 17 Sudoeste 0 -- -- 45
2018-05-21 13:00:00 22.6 7 Oeste 15 Noroeste 0 -- -- 45
2018-05-21 12:00:00 20.8 4 Oeste 12 Noroeste 0 -- -- 50
2018-05-21 11:00:00 19.9 5 Oeste 9 Sudoeste 0 -- -- 55
2018-05-21 10:00:00 18 3 Nordeste 8 Norte 0 -- -- 61
2018-05-21 09:00:00 15.2 4 Sudeste 10 Sudeste 0 -- -- 72
2018-05-21 08:00:00 13.3 4 Sudeste 10 Sudeste 0 -- -- 78
2018-05-21 07:00:00 13 4 Este 10 Este 0 -- -- 80
2018-05-21 06:00:00 13.1 6 Este 10 Este 0 -- -- 82
2018-05-21 05:00:00 13 5 Este 13 Este 0 -- -- 81
2018-05-21 04:00:00 13.3 6 Sudeste 11 Este 0 -- -- 79
2018-05-21 03:00:00 13.2 4 Sudeste 9 Sudeste 0 -- -- 81
2018-05-21 02:00:00 13.2 6 Sur 14 Sur 0 -- -- 82
2018-05-21 01:00:00 13.8 9 Sur 17 Sur 0 -- -- 80
2018-05-21 00:00:00 16.6 2 Oeste 12 Oeste 0 -- -- 66
2018-05-20 23:00:00 18.3 7 Sur 20 Sudeste 0 -- -- 51
2018-05-20 22:00:00 19.3 7 Sudeste 13 Sudeste 0 -- -- 44
2018-05-20 21:00:00 20.1 7 Sudeste 20 Sudeste 0 -- -- 42
2018-05-20 20:00:00 21 10 Sudeste 18 Sudeste 0 -- -- 38
2018-05-20 19:00:00 21.2 4 Noroeste 19 Sudeste 0 -- -- 39
2018-05-20 18:00:00 21.9 13 Sudeste 24 Sudeste 0 -- -- 36
2018-05-20 17:00:00 23.2 6 Sur 34 Sur 0 -- -- 33
2018-05-20 16:00:00 22.5 6 Sudeste 23 Sur 0 -- -- 36
2018-05-20 15:00:00 21.8 9 Sur 21 Sur 0 -- -- 37
2018-05-20 14:00:00 20.3 4 Nordeste 13 Norte 0 -- -- 54
2018-05-20 13:00:00 19.4 5 Noroeste 11 Noroeste 0 -- -- 61
2018-05-20 12:00:00 17.6 3 Norte 9 Norte 0 -- -- 66
2018-05-20 11:00:00 15.5 4 Nordeste 10 Nordeste 0 -- -- 79
2018-05-20 10:00:00 14.1 5 Norte 13 Norte 0.2 -- -- 88
2018-05-20 09:00:00 13.2 3 Nordeste 7 Este 0.6 -- -- 88
2018-05-20 08:00:00 13.2 3 Norte 12 Norte 0.6 -- -- 90
2018-05-20 07:00:00 13.4 6 Nordeste 14 Nordeste 0 -- -- 85
2018-05-20 06:00:00 13.9 5 Norte 11 Norte 0 -- -- 78
2018-05-20 05:00:00 14.4 4 Nordeste 14 Nordeste 0 -- -- 67
2018-05-20 04:00:00 14.7 4 Este 18 Este 0 -- -- 69
2018-05-20 03:00:00 15.3 8 Este 17 Este 0 -- -- 64
2018-05-20 02:00:00 16.2 3 Nordeste 15 Sudeste 0 -- -- 55
2018-05-20 01:00:00 16.5 9 Sudeste 24 Este 0 -- -- 57
2018-05-20 00:00:00 16.9 14 Este 26 Este 0 -- -- 58
2018-05-19 23:00:00 17.6 12 Este 23 Este 0 -- -- 53
2018-05-19 22:00:00 19.3 4 Este 15 Nordeste 0 -- -- 50
2018-05-19 21:00:00 20.2 4 Nordeste 14 Nordeste 0 -- -- 44
2018-05-19 20:00:00 20.9 6 Nordeste 19 Nordeste 0 -- -- 42
2018-05-19 19:00:00 22.4 10 Nordeste 25 Nordeste 0 -- -- 40
2018-05-19 18:00:00 22.3 5 Nordeste 16 Norte 0 -- -- 40
2018-05-19 17:00:00 22.9 8 Norte 18 Sudeste 0 -- -- 38
2018-05-19 16:00:00 23.4 6 Sudeste 18 Sudeste 0 -- -- 37
2018-05-19 15:00:00 22.1 6 Sudeste 21 Sudeste 0 -- -- 41
2018-05-19 14:00:00 22.2 8 Sur 22 Este 0 -- -- 40
2018-05-19 13:00:00 21.6 6 Sudeste 20 Este 0 -- -- 41
2018-05-19 12:00:00 20.3 8 Sudeste 18 Este 0 -- -- 47
2018-05-19 11:00:00 18.5 7 Sudeste 14 Sudeste 0 -- -- 56
2018-05-19 10:00:00 16.8 8 Sudeste 17 Sudeste 0 -- -- 60
2018-05-19 09:00:00 14.9 6 Este 14 Este 0 -- -- 63
2018-05-19 08:00:00 12 2 Oeste 5 Nordeste 0 -- -- 77
2018-05-19 07:00:00 12.2 4 Este 10 Sudeste 0 -- -- 75
2018-05-19 06:00:00 12.5 2 Este 17 Este 0 -- -- 76
2018-05-19 05:00:00 12.8 5 Este 25 Este 0 -- -- 76
2018-05-19 04:00:00 13.3 12 Sudeste 21 Sudeste 0 -- -- 75
2018-05-19 03:00:00 13.5 9 Este 17 Este 0 -- -- 76
2018-05-19 02:00:00 13.8 6 Este 14 Este 0 -- -- 77
2018-05-19 01:00:00 15 4 Sudeste 18 Sudeste 0 -- -- 72
2018-05-19 00:00:00 16.2 10 Sudeste 20 Sudeste 0 -- -- 67
2018-05-18 23:00:00 16.3 9 Este 27 Este 0 -- -- 65
2018-05-18 22:00:00 16.4 13 Este 30 Este 0 -- -- 65
2018-05-18 21:00:00 18.1 13 Este 26 Este 0 -- -- 55
2018-05-18 20:00:00 18.8 7 Este 32 Este 0 -- -- 51
2018-05-18 19:00:00 21.2 9 Norte 21 Norte 0 -- -- 48
2018-05-18 18:00:00 20.8 11 Norte 29 Norte 0 -- -- 48
2018-05-18 17:00:00 20.9 12 Noroeste 32 Norte 0 -- -- 49
2018-05-18 16:00:00 21.5 14 Oeste 37 Sudoeste 0 -- -- 44
2018-05-18 15:00:00 23.6 10 Sudeste 25 Sudeste 0 -- -- 34
2018-05-18 14:00:00 22.2 13 Sudeste 27 Sudeste 0 -- -- 38
2018-05-18 13:00:00 21.1 13 Sudeste 25 Sudeste 0 -- -- 42
2018-05-18 12:00:00 19.6 15 Sudeste 28 Sudeste 0 -- -- 45
2018-05-18 11:00:00 18.2 15 Sudeste 26 Sudeste 0 -- -- 49
2018-05-18 10:00:00 16.7 13 Sudeste 26 Sudeste 0 -- -- 55
2018-05-18 09:00:00 14.5 13 Sudeste 28 Este 0 -- -- 63
2018-05-18 08:00:00 12.3 14 Sudeste 26 Este 0 -- -- 72
2018-05-18 07:00:00 11.4 11 Este 20 Este 0 -- -- 76
2018-05-18 06:00:00 12.1 3 Este 23 Sudeste 0 -- -- 72
2018-05-18 05:00:00 12.7 9 Sudeste 27 Este 0 -- -- 69
2018-05-18 04:00:00 13.1 17 Sudeste 28 Este 0 -- -- 68
2018-05-18 03:00:00 13.5 15 Este 31 Sudeste 0 -- -- 69
2018-05-18 02:00:00 14.3 17 Sudeste 31 Sudeste 0 -- -- 66
2018-05-18 01:00:00 14.9 17 Sudeste 33 Este 0 -- -- 62
2018-05-18 00:00:00 15.8 18 Sudeste 29 Este 0 -- -- 57
2018-05-17 23:00:00 17.3 14 Sudeste 26 Sudeste 0 -- -- 50
2018-05-17 22:00:00 18.9 7 Sudeste 15 Sudeste 0 -- -- 43
2018-05-17 21:00:00 21.2 8 Sudeste 22 Sudeste 0 -- -- 37
2018-05-17 20:00:00 22.2 11 Sur 22 Sudeste 0 -- -- 34
2018-05-17 19:00:00 22.7 9 Sur 26 Sudeste 0 -- -- 33
2018-05-17 18:00:00 23.8 13 Sudeste 34 Sudeste 0 -- -- 31
2018-05-17 17:00:00 24 12 Sur 25 Sur 0 -- -- 30
2018-05-17 16:00:00 23.3 9 Sudeste 24 Este 0 -- -- 31
2018-05-17 15:00:00 22.9 14 Sudeste 28 Sudeste 0 -- -- 32
2018-05-17 14:00:00 21.7 13 Sudeste 31 Sudeste 0 -- -- 35
2018-05-17 13:00:00 20.9 16 Sudeste 32 Sudeste 0 -- -- 37
2018-05-17 12:00:00 19.3 17 Sudeste 32 Sudeste 0 -- -- 40
2018-05-17 11:00:00 18 17 Sudeste 28 Sudeste 0 -- -- 45
2018-05-17 10:00:00 16 12 Sudeste 23 Este 0 -- -- 51
2018-05-17 09:00:00 14.3 6 Este 18 Este 0 -- -- 54
2018-05-17 08:00:00 12.2 9 Este 22 Este 0 -- -- 58
2018-05-17 07:00:00 11.6 10 Sudeste 21 Sudeste 0 -- -- 59
2018-05-17 06:00:00 12.4 9 Este 22 Sudeste 0 -- -- 57
2018-05-17 05:00:00 12.4 12 Sudeste 24 Sudeste 0 -- -- 55
2018-05-17 04:00:00 12.5 11 Sudeste 23 Este 0 -- -- 55
2018-05-17 03:00:00 12.7 12 Este 23 Este 0 -- -- 54
2018-05-17 02:00:00 13.6 15 Sudeste 30 Sudeste 0 -- -- 52
2018-05-17 01:00:00 14.5 15 Sudeste 28 Este 0 -- -- 49
2018-05-17 00:00:00 15.7 15 Sudeste 27 Este 0 -- -- 45
2018-05-16 23:00:00 17.1 14 Sudeste 26 Este 0 -- -- 40
2018-05-16 22:00:00 18.8 10 Este 19 Este 0 -- -- 36
2018-05-16 21:00:00 21.1 7 Sudeste 22 Este 0 -- -- 32
2018-05-16 20:00:00 22.5 12 Sudeste 23 Sudeste 0 -- -- 29
2018-05-16 19:00:00 23.5 12 Sudeste 30 Sudeste 0 -- -- 28
2018-05-16 18:00:00 23.7 15 Sudeste 30 Sudeste 0 -- -- 30
2018-05-16 17:00:00 23.7 15 Sudeste 28 Sudeste 0 -- -- 30
2018-05-16 16:00:00 23.2 15 Sudeste 30 Sudeste 0 -- -- 31
2018-05-16 15:00:00 22.7 15 Sudeste 31 Sudeste 0 -- -- 33
2018-05-16 14:00:00 22.2 15 Sudeste 31 Sudeste 0 -- -- 36
2018-05-16 13:00:00 21.1 13 Sudeste 31 Sudeste 0 -- -- 40
2018-05-16 12:00:00 20 15 Sudeste 31 Este 0 -- -- 42
2018-05-16 11:00:00 18 15 Sudeste 30 Este 0 -- -- 46
2018-05-16 10:00:00 16.2 12 Sudeste 23 Sudeste 0 -- -- 48
2018-05-16 09:00:00 15 6 Este 16 Sudeste 0 -- -- 53
2018-05-16 08:00:00 11.9 3 Nordeste 10 Norte 0 -- -- 64
2018-05-16 07:00:00 11.7 2 Este 12 Este 0 -- -- 65
2018-05-16 06:00:00 12.2 11 Este 26 Este 0 -- -- 64
2018-05-16 05:00:00 12.5 17 Este 30 Este 0 -- -- 67
2018-05-16 04:00:00 13 17 Sudeste 32 Sudeste 0 -- -- 68
2018-05-16 03:00:00 13.6 18 Sudeste 30 Este 0 -- -- 66
2018-05-16 02:00:00 14.2 19 Este 33 Este 0 -- -- 62
2018-05-16 01:00:00 15.7 17 Este 33 Sudeste 0 -- -- 51
2018-05-16 00:00:00 17.4 3 Nordeste 17 Nordeste 0 -- -- 47
2018-05-15 23:00:00 19 3 Nordeste 9 Norte 0 -- -- 44
2018-05-15 22:00:00 19.9 2 Nordeste 14 Norte 0 -- -- 41
2018-05-15 21:00:00 21.6 6 Norte 15 Nordeste 0 -- -- 36
2018-05-15 20:00:00 22.8 4 Noroeste 13 Noroeste 0 -- -- 34
2018-05-15 19:00:00 23.8 4 Noroeste 14 Sur 0 -- -- 32
2018-05-15 18:00:00 23.4 3 Sudoeste 19 Sudeste 0 -- -- 32
2018-05-15 17:00:00 22.2 6 Sudeste 18 Sudeste 0 -- -- 32
2018-05-15 16:00:00 22.3 5 Sur 16 Este 0 -- -- 31
2018-05-15 15:00:00 21.5 4 Norte 20 Norte 0 -- -- 32
2018-05-15 14:00:00 19.8 5 Este 16 Norte 0 -- -- 33
2018-05-15 13:00:00 18.5 4 Nordeste 19 Este 0 -- -- 39
2018-05-15 12:00:00 17 5 Sudeste 17 Nordeste 0 -- -- 42
2018-05-15 11:00:00 15.5 3 Sur 17 Norte 0 -- -- 43
2018-05-15 10:00:00 13.1 8 Norte 16 Norte 0 -- -- 47
2018-05-15 09:00:00 10.6 5 Norte 15 Nordeste 0 -- -- 54
2018-05-15 08:00:00 6.6 4 Norte 8 Nordeste 0 -- -- 70
2018-05-15 07:00:00 7 3 Norte 8 Norte 0 -- -- 68
2018-05-15 06:00:00 8.1 0 Calma 11 Norte 0 -- -- 62
2018-05-15 05:00:00 9 4 Nordeste 22 Nordeste 0 -- -- 58
2018-05-15 04:00:00 9.5 6 Norte 21 Norte 0 -- -- 56
2018-05-15 03:00:00 10.6 12 Norte 26 Nordeste 0 -- -- 51
2018-05-15 02:00:00 11 9 Norte 15 Norte 0 -- -- 53
2018-05-15 01:00:00 11.2 3 Nordeste 9 Este 0 -- -- 54
2018-05-15 00:00:00 12.8 4 Nordeste 11 Norte 0 -- -- 50
2018-05-14 23:00:00 13.7 6 Nordeste 15 Norte 0 -- -- 47
2018-05-14 22:00:00 14.7 4 Norte 11 Norte 0 -- -- 44
2018-05-14 21:00:00 16.5 5 Norte 17 Norte 0 -- -- 42
2018-05-14 20:00:00 17.4 9 Norte 26 Nordeste 0 -- -- 40
2018-05-14 19:00:00 18.5 13 Norte 31 Norte 0 -- -- 40
2018-05-14 18:00:00 18.7 13 Norte 28 Norte 0 -- -- 36
2018-05-14 17:00:00 18.2 17 Norte 33 Norte 0 -- -- 37
2018-05-14 16:00:00 20.3 13 Norte 28 Norte 0 -- -- 34
2018-05-14 15:00:00 19.9 13 Norte 32 Norte 0 -- -- 36
2018-05-14 14:00:00 19 13 Norte 29 Norte 0 -- -- 39
2018-05-14 13:00:00 18.2 9 Noroeste 26 Noroeste 0 -- -- 40
2018-05-14 12:00:00 16.9 10 Noroeste 20 Noroeste 0 -- -- 42
2018-05-14 11:00:00 15.2 9 Norte 21 Noroeste 0 -- -- 44
2018-05-14 10:00:00 13.5 6 Norte 15 Norte 0 -- -- 51
2018-05-14 09:00:00 10.1 0 Calma 13 Norte 0 -- -- 62
2018-05-14 08:00:00 8.6 6 Nordeste 13 Norte 0 -- -- 64
2018-05-14 07:00:00 7.5 0 Calma 7 Nordeste 0 -- -- 67
2018-05-14 06:00:00 7.7 0 Calma 5 Nordeste 0 -- -- 64
2018-05-14 05:00:00 7.4 0 Calma 4 Nordeste 0 -- -- 61
2018-05-14 04:00:00 7.4 0 Calma 3 Sudoeste 0 -- -- 61
2018-05-14 03:00:00 8.4 0 Calma 5 Este 0 -- -- 56
2018-05-14 02:00:00 8.4 3 Nordeste 8 Nordeste 0 -- -- 55
2018-05-14 01:00:00 9.7 3 Nordeste 8 Norte 0 -- -- 50
2018-05-11 20:00:00 -- -- -- -- -- -- -- -- --
2018-05-11 19:00:00 25.4 9 Oeste 23 Oeste 0 -- -- 31
2018-05-11 18:00:00 26.2 9 Oeste 24 Oeste 0 -- -- 31
2018-05-11 17:00:00 25.2 8 Oeste 22 Oeste 0 -- -- 33
2018-05-11 16:00:00 25.5 10 Oeste 24 Sudoeste 0 -- -- 36
2018-05-11 15:00:00 24.6 9 Sudoeste 25 Sudoeste 0 -- -- 38
2018-05-11 14:00:00 23.1 5 Sudoeste 17 Sur 0 -- -- 48
2018-05-11 13:00:00 21.8 6 Sudoeste 14 Sur 0 -- -- 58
2018-05-11 12:00:00 19.5 5 Oeste 14 Sudoeste 0 -- -- 67
2018-05-11 11:00:00 17.1 5 Sur 21 Sudeste 0 -- -- 75
2018-05-11 10:00:00 14.3 12 Sudeste 22 Sudeste 0 -- -- 87
2018-05-11 09:00:00 12.3 10 Sudeste 26 Sudeste 0 -- -- 93
2018-05-11 08:00:00 11.1 12 Sudeste 24 Sudeste 0 -- -- 93
2018-05-11 07:00:00 11.1 15 Sudeste 27 Este 0 -- -- 91
2018-05-11 06:00:00 11.9 16 Sudeste 26 Este 0 -- -- 84
2018-05-11 05:00:00 12.1 13 Sudeste 24 Sudeste 0 -- -- 85
2018-05-11 04:00:00 13.3 13 Sudeste 24 Este 0 -- -- 83
2018-05-11 03:00:00 13.3 14 Sudeste 23 Sudeste 0 -- -- 85
2018-05-11 02:00:00 13.4 14 Este 23 Este 0 -- -- 85
2018-05-11 01:00:00 14 11 Sudeste 22 Sudeste 0 -- -- 85
2018-05-11 00:00:00 14.1 12 Sudeste 27 Este 0 -- -- 85
2018-05-10 23:00:00 14.5 15 Sudeste 31 Sudeste 0 -- -- 83
2018-05-10 22:00:00 15.7 17 Sudeste 33 Sudeste 0 -- -- 74
2018-05-10 21:00:00 17.7 19 Sudeste 37 Sudeste 0 -- -- 71
2018-05-10 20:00:00 23.1 3 Este 9 Nordeste 0 -- -- 43
2018-05-10 19:00:00 25 5 Noroeste 12 Oeste 0 -- -- 41
2018-05-10 18:00:00 24.3 5 Oeste 13 Norte 0 -- -- 47
2018-05-10 17:00:00 23.2 9 Norte 20 Norte 0 -- -- 50
2018-05-10 16:00:00 23.2 4 Norte 17 Nordeste 0 -- -- 47
2018-05-10 15:00:00 22.7 4 Sur 14 Sur 0 -- -- 52
2018-05-10 14:00:00 21.6 6 Sur 15 Sur 0 -- -- 61
2018-05-10 13:00:00 19.9 6 Sur 12 Sur 0.6 -- -- 68
2018-05-10 12:00:00 19.1 3 Sudoeste 9 Sudoeste 0 -- -- 72
2018-05-10 11:00:00 17.1 4 Sur 9 Sur 0 -- -- 80
2018-05-10 10:00:00 15.6 3 Sudoeste 8 Oeste 0 -- -- 90
2018-05-10 09:00:00 14.4 0 Calma 4 Oeste 0 -- -- 94
2018-05-10 08:00:00 13.8 0 Calma 5 Sudoeste 0 -- -- 95
2018-05-10 07:00:00 14 0 Calma 4 Oeste 0 -- -- 94
2018-05-10 06:00:00 14.2 0 Calma 12 Sudoeste 0 -- -- 93
2018-05-10 05:00:00 14.2 4 Sudoeste 10 Sudoeste 0 -- -- 93
2018-05-10 04:00:00 14.8 2 Sudoeste 6 Sur 0 -- -- 93
2018-05-10 03:00:00 15.6 2 Sudoeste 5 Oeste 0 -- -- 90
2018-05-10 02:00:00 15.7 0 Calma 12 Sudoeste 0 -- -- 88
2018-05-10 01:00:00 16.4 0 Calma 10 Sur 0 -- -- 85
2018-05-10 00:00:00 16.5 6 Sudoeste 29 Oeste 2.2 -- -- 82
2018-05-09 23:00:00 19.3 2 Oeste 13 Sudoeste 0 -- -- 67
2018-05-09 22:00:00 20 2 Oeste 17 Sudoeste 0 -- -- 65
2018-05-09 21:00:00 21.4 5 Sudoeste 23 Sudoeste 0 -- -- 61
2018-05-09 20:00:00 22.7 12 Oeste 24 Sudoeste 0 -- -- 55
2018-05-09 19:00:00 25.7 11 Noroeste 30 Noroeste 0 -- -- 34
2018-05-09 18:00:00 26.2 12 Noroeste 31 Noroeste 0 -- -- 33
2018-05-09 17:00:00 26 13 Noroeste 28 Norte 0 -- -- 39
2018-05-09 16:00:00 25.4 12 Noroeste 28 Noroeste 0 -- -- 41
2018-05-09 15:00:00 25.5 10 Noroeste 26 Sudoeste 0 -- -- 41
2018-05-09 14:00:00 25.5 8 Oeste 20 Noroeste 0 -- -- 43
2018-05-09 13:00:00 22 6 Sur 14 Sur 0 -- -- 57
2018-05-09 12:00:00 19.9 5 Sur 9 Sur 0 -- -- 68
2018-05-09 11:00:00 18.3 3 Sudoeste 8 Sudoeste 0 -- -- 75
2018-05-09 10:00:00 15.5 3 Sudoeste 12 Sudoeste 0 -- -- 85
2018-05-09 09:00:00 13.4 3 Sur 7 Sur 0 -- -- 93
2018-05-09 08:00:00 10.8 0 Calma 5 Nordeste 0.2 -- -- 94
2018-05-09 07:00:00 10.9 2 Nordeste 5 Nordeste 0 -- -- 93
2018-05-09 06:00:00 11.3 3 Nordeste 5 Nordeste 0 -- -- 92
2018-05-09 05:00:00 11.8 3 Este 5 Este 0 -- -- 90
2018-05-09 04:00:00 13.1 2 Sudeste 10 Sudeste 0 -- -- 89
2018-05-09 03:00:00 13 3 Sudeste 10 Sur 0 -- -- 87
2018-05-09 02:00:00 14 2 Nordeste 8 Nordeste 0 -- -- 86
2018-05-09 01:00:00 14.7 3 Nordeste 9 Este 0 -- -- 85
2018-05-09 00:00:00 15 6 Sudeste 10 Este 0 -- -- 85
2018-05-08 23:00:00 14.7 6 Sudeste 12 Sudeste 0 -- -- 86
2018-05-08 22:00:00 16.2 2 Nordeste 8 Nordeste 0 -- -- 79
2018-05-08 21:00:00 17.5 3 Noroeste 8 Norte 0 -- -- 76
2018-05-08 20:00:00 17.8 2 Nordeste 11 Sudeste 0 -- -- 73
2018-05-08 19:00:00 17.8 8 Este 24 Sudeste 0 -- -- 69
2018-05-08 18:00:00 15.6 11 Sudeste 46 Este 1.6 -- -- 81
2018-05-08 17:00:00 17.2 23 Este 51 Este 0.6 -- -- 68
2018-05-08 16:00:00 24.7 3 Sur 18 Noroeste 0 -- -- 39
2018-05-08 15:00:00 24.6 9 Noroeste 19 Noroeste 0 -- -- 40
2018-05-08 14:00:00 23.9 8 Noroeste 15 Norte 0 -- -- 44
2018-05-08 13:00:00 22.2 5 Oeste 10 Noroeste 0 -- -- 50
2018-05-08 12:00:00 20 0 Calma 9 Noroeste 0 -- -- 57
2018-05-08 11:00:00 18.2 4 Norte 9 Noroeste 0 -- -- 61
2018-05-08 10:00:00 16.1 2 Sur 9 Sur 0 -- -- 65
2018-05-08 09:00:00 14.7 4 Norte 6 Norte 0 -- -- 74
2018-05-08 08:00:00 13.2 0 Calma 5 Norte 0 -- -- 78
2018-05-08 07:00:00 13.5 4 Noroeste 15 Sudeste 0 -- -- 73
2018-05-08 06:00:00 13.6 8 Este 15 Este 0 -- -- 73
2018-05-08 05:00:00 12.1 2 Nordeste 11 Nordeste 0 -- -- 80
2018-05-08 04:00:00 13.2 3 Nordeste 9 Norte 0 -- -- 74
2018-05-08 03:00:00 14.3 2 Norte 9 Nordeste 0 -- -- 70
2018-05-08 02:00:00 15.3 3 Nordeste 23 Sudeste 0 -- -- 67
2018-05-08 01:00:00 16.1 10 Sudeste 18 Sudeste 0 -- -- 63
2018-05-08 00:00:00 17 9 Este 15 Este 0 -- -- 58
2018-05-07 23:00:00 17.6 7 Este 16 Este 0 -- -- 55
2018-05-07 22:00:00 17.8 8 Este 17 Este 0 -- -- 58
2018-05-07 21:00:00 19.2 5 Nordeste 21 Nordeste 0 -- -- 59
2018-05-07 20:00:00 20.7 6 Este 25 Nordeste 0 -- -- 53
2018-05-07 19:00:00 23.5 3 Sudoeste 10 Sur 0 -- -- 33
2018-05-07 18:00:00 24.6 4 Sur 14 Noroeste 0 -- -- 32
2018-05-07 17:00:00 24.8 5 Oeste 17 Sur 0 -- -- 32
2018-05-07 16:00:00 23.5 4 Sur 14 Sur 0 -- -- 35
2018-05-07 15:00:00 23 7 Sudeste 18 Sudeste 0 -- -- 37
2018-05-07 14:00:00 22.8 5 Nordeste 28 Norte 0 -- -- 40
2018-05-07 13:00:00 20.9 5 Norte 17 Norte 0 -- -- 46
2018-05-07 12:00:00 20.1 5 Nordeste 15 Nordeste 0 -- -- 50
2018-05-07 11:00:00 19.5 6 Nordeste 14 Sudeste 0 -- -- 51
2018-05-07 10:00:00 17.2 5 Sudeste 12 Sudeste 0 -- -- 60
2018-05-07 09:00:00 14.5 2 Nordeste 14 Nordeste 0 -- -- 73
2018-05-07 08:00:00 11.8 6 Este 15 Este 0 -- -- 82
2018-05-07 07:00:00 10.9 0 Calma 10 Este 0 -- -- 84
2018-05-07 06:00:00 11.3 4 Este 12 Nordeste 0 -- -- 84
2018-05-07 05:00:00 12 4 Este 14 Este 0 -- -- 81
2018-05-07 04:00:00 12.4 8 Este 19 Este 0 -- -- 80
2018-05-07 03:00:00 12.9 6 Este 21 Sudeste 0 -- -- 78
2018-05-07 02:00:00 13.3 9 Este 18 Este 0 -- -- 76
2018-05-07 01:00:00 14.5 5 Este 21 Sudeste 0 -- -- 71
2018-05-07 00:00:00 15.8 12 Este 24 Este 0 -- -- 64
2018-05-06 23:00:00 16.1 15 Sudeste 30 Este 0 -- -- 61
2018-05-06 22:00:00 17.1 10 Este 21 Este 0 -- -- 61
2018-05-06 21:00:00 18.8 5 Este 19 Este 0 -- -- 53
2018-05-06 20:00:00 20.5 9 Sudeste 28 Sudeste 0 -- -- 46
2018-05-06 19:00:00 21.2 15 Sudeste 31 Sudeste 0 -- -- 45
2018-05-06 18:00:00 22.5 15 Sudeste 25 Sudeste 0 -- -- 37
2018-05-06 17:00:00 22.3 13 Sur 22 Sudeste 0 -- -- 38
2018-05-06 16:00:00 22.1 10 Sudeste 28 Sudeste 0 -- -- 42
2018-05-06 15:00:00 21.5 11 Sudeste 26 Sur 0 -- -- 41
2018-05-06 14:00:00 20.9 14 Sudeste 27 Sudeste 0 -- -- 47
2018-05-06 13:00:00 19.2 9 Sudeste 31 Sudeste 0 -- -- 56
2018-05-06 12:00:00 18.2 11 Sudeste 26 Sudeste 0 -- -- 58
2018-05-06 11:00:00 16.6 12 Sudeste 23 Sudeste 0 -- -- 66
2018-05-06 10:00:00 15.4 11 Sudeste 22 Este 0 -- -- 69
2018-05-06 09:00:00 13.1 9 Este 15 Este 0 -- -- 76
2018-05-06 08:00:00 10.7 3 Este 14 Este 0 -- -- 83
2018-05-06 07:00:00 10.7 4 Este 10 Este 0 -- -- 83
2018-05-06 06:00:00 11.3 2 Este 8 Sudeste 0 -- -- 85
2018-05-06 05:00:00 11.5 4 Sudeste 16 Este 0 -- -- 85
2018-05-06 04:00:00 11.4 8 Sudeste 26 Este 0 -- -- 80
2018-05-06 03:00:00 11.3 11 Este 24 Este 0 -- -- 83
2018-05-06 02:00:00 11.7 16 Este 25 Este 0.2 -- -- 81
2018-05-06 01:00:00 12.1 12 Este 23 Este 0 -- -- 81
2018-05-06 00:00:00 12.3 12 Este 28 Este 1 -- -- 82
2018-05-05 23:00:00 12.9 11 Este 35 Sudeste 1 -- -- 83
2018-05-05 22:00:00 14.4 22 Sudeste 35 Este 0.4 -- -- 72
2018-05-05 21:00:00 15.4 13 Sudeste 26 Sudeste 0 -- -- 71
2018-05-05 20:00:00 15.7 14 Sudeste 34 Este 0 -- -- 71
2018-05-05 19:00:00 15.7 21 Sudeste 37 Este 0.6 -- -- 73
2018-05-05 18:00:00 21.1 14 Este 36 Este 0 -- -- 49
2018-05-05 17:00:00 23.9 6 Norte 14 Oeste 0 -- -- 35
2018-05-05 16:00:00 23.9 4 Oeste 13 Oeste 0 -- -- 35
2018-05-05 15:00:00 22.6 6 Este 15 Sudeste 0 -- -- 38
2018-05-05 14:00:00 21.7 5 Sudoeste 14 Sur 0 -- -- 42
2018-05-05 13:00:00 20.5 3 Noroeste 9 Sur 0 -- -- 46
2018-05-05 12:00:00 18.5 3 Sudeste 14 Sudeste 0 -- -- 51
2018-05-05 11:00:00 16.8 4 Sur 14 Sudeste 0 -- -- 55
2018-05-05 10:00:00 14.3 7 Sudeste 14 Sudeste 0 -- -- 63
2018-05-05 09:00:00 13.4 7 Sudeste 18 Sudeste 0 -- -- 67
2018-05-05 08:00:00 11.5 7 Sudeste 17 Sudeste 0 -- -- 73
2018-05-05 07:00:00 11.7 8 Este 16 Este 0 -- -- 71
2018-05-05 06:00:00 12.4 11 Este 24 Este 0 -- -- 68
2018-05-05 05:00:00 12.6 11 Sudeste 28 Este 0 -- -- 67
2018-05-05 04:00:00 12.7 15 Sudeste 27 Este 0 -- -- 66
2018-05-05 03:00:00 12.6 16 Sudeste 27 Sudeste 0 -- -- 65
2018-05-05 02:00:00 13.3 14 Sudeste 26 Sudeste 0 -- -- 62
2018-05-05 01:00:00 15.1 15 Sudeste 30 Sudeste 0 -- -- 53
2018-05-05 00:00:00 15.7 0 Calma 6 Este 0 -- -- 50
2018-05-04 23:00:00 16.3 3 Nordeste 5 Este 0 -- -- 52
2018-05-04 22:00:00 17.5 3 Nordeste 4 Nordeste 0 -- -- 45
2018-05-04 21:00:00 18.5 3 Sur 8 Sudoeste 0 -- -- 41
2018-05-04 20:00:00 19.7 3 Sudoeste 11 Sur 0 -- -- 37
2018-05-04 19:00:00 20.3 4 Sudoeste 15 Sur 0 -- -- 34
2018-05-04 18:00:00 20.8 7 Sudeste 21 Noroeste 0 -- -- 33
2018-05-04 17:00:00 20.7 6 Este 15 Este 0 -- -- 32
2018-05-04 16:00:00 20 8 Este 17 Este 0 -- -- 32
2018-05-04 15:00:00 19.6 4 Este 15 Nordeste 0 -- -- 35
2018-05-04 14:00:00 18.2 6 Nordeste 18 Sudeste 0 -- -- 38
2018-05-04 13:00:00 17.2 5 Norte 19 Norte 0 -- -- 41
2018-05-04 12:00:00 15.2 6 Nordeste 14 Este 0 -- -- 45
2018-05-04 11:00:00 13.4 4 Nordeste 17 Norte 0 -- -- 49
2018-05-04 10:00:00 11.2 5 Nordeste 19 Nordeste 0 -- -- 55
2018-05-04 09:00:00 8.8 6 Nordeste 17 Nordeste 0 -- -- 62
2018-05-04 08:00:00 5.2 5 Nordeste 13 Norte 0 -- -- 74
2018-05-04 07:00:00 5 4 Norte 15 Norte 0 -- -- 74
2018-05-04 06:00:00 5.7 7 Norte 14 Nordeste 0 -- -- 72
2018-05-04 05:00:00 6.3 6 Norte 23 Nordeste 0 -- -- 70
2018-05-04 04:00:00 7.1 15 Nordeste 25 Nordeste 0 -- -- 67
2018-05-04 03:00:00 8.1 12 Nordeste 22 Nordeste 0 -- -- 64
2018-05-04 02:00:00 8.8 9 Norte 22 Nordeste 0 -- -- 63
2018-05-04 01:00:00 10 13 Norte 26 Nordeste 0 -- -- 58
2018-05-04 00:00:00 11.2 13 Norte 23 Norte 0 -- -- 52
2018-05-03 23:00:00 11.9 7 Norte 17 Norte 0 -- -- 50
2018-05-03 22:00:00 14.2 5 Nordeste 18 Nordeste 0 -- -- 43
2018-05-03 21:00:00 16.2 10 Nordeste 27 Noroeste 0 -- -- 38
2018-05-03 20:00:00 18.1 9 Noroeste 27 Norte 0 -- -- 31
2018-05-03 19:00:00 19.2 14 Noroeste 28 Oeste 0 -- -- 31
2018-05-03 18:00:00 19.4 12 Noroeste 31 Noroeste 0 -- -- 32
2018-05-03 17:00:00 18.8 16 Norte 32 Norte 0 -- -- 33
2018-05-03 16:00:00 17.2 13 Norte 31 Norte 0 -- -- 41
2018-05-03 15:00:00 17.9 12 Noroeste 29 Oeste 0 -- -- 41
2018-05-03 14:00:00 17.5 13 Norte 29 Nordeste 0 -- -- 45
2018-05-03 13:00:00 17.2 13 Norte 30 Norte 0 -- -- 46
2018-05-03 12:00:00 17.2 16 Norte 29 Norte 0 -- -- 47
2018-05-03 11:00:00 16 12 Norte 24 Noroeste 0 -- -- 54
2018-05-03 10:00:00 13.7 6 Norte 15 Noroeste 0 -- -- 61
2018-05-03 09:00:00 10.2 6 Norte 12 Norte 0 -- -- 68
2018-05-03 08:00:00 7.9 5 Norte 10 Norte 0 -- -- 71
2018-05-03 07:00:00 7 2 Noroeste 7 Noroeste 0 -- -- 72
2018-05-03 06:00:00 7.4 2 Norte 3 Norte 0 -- -- 70
2018-05-03 05:00:00 8.3 2 Noroeste 4 Noroeste 0 -- -- 66
2018-05-03 04:00:00 9.4 0 Calma 9 Noroeste 0 -- -- 61
2018-05-03 03:00:00 9.5 5 Norte 10 Norte 0 -- -- 59
2018-05-03 02:00:00 9.9 0 Calma 6 Noroeste 0 -- -- 58
2018-05-03 01:00:00 10.4 3 Noroeste 5 Noroeste 0 -- -- 55
2018-05-03 00:00:00 11 4 Norte 14 Norte 0 -- -- 49
2018-05-02 23:00:00 11.7 6 Norte 13 Noroeste 0 -- -- 44
2018-05-02 22:00:00 12.9 3 Noroeste 10 Noroeste 0 -- -- 41
2018-05-02 21:00:00 14.1 5 Norte 21 Noroeste 0 -- -- 39
2018-05-02 20:00:00 16.3 9 Noroeste 25 Noroeste 0 -- -- 34
2018-05-02 19:00:00 18 16 Noroeste 31 Noroeste 0 -- -- 29
2018-05-02 18:00:00 18.7 12 Noroeste 29 Noroeste 0 -- -- 31
2018-05-02 17:00:00 18.6 16 Noroeste 32 Noroeste 0 -- -- 32
2018-05-02 16:00:00 18.8 13 Noroeste 31 Noroeste 0 -- -- 28
2018-05-02 15:00:00 18 13 Noroeste 32 Noroeste 0 -- -- 29
2018-05-02 14:00:00 16.6 12 Noroeste 32 Noroeste 0 -- -- 35
2018-05-02 13:00:00 16.6 12 Oeste 29 Noroeste 0 -- -- 37
2018-05-02 12:00:00 15 10 Noroeste 26 Noroeste 0 -- -- 45
2018-05-02 11:00:00 12.2 4 Este 10 Noroeste 0 -- -- 59
2018-05-02 10:00:00 8.2 4 Sudoeste 9 Sudoeste 0 -- -- 74
2018-05-02 09:00:00 4.6 3 Sudeste 4 Sudeste 0 -- -- 88
2018-05-02 08:00:00 3.7 0 Calma 3 Sudeste 0 -- -- 89
2018-05-02 07:00:00 3.6 0 Calma 2 Sudeste 0 -- -- 91
2018-05-02 06:00:00 3.2 0 Calma 4 Sudoeste 0 -- -- 91
2018-05-02 05:00:00 3.5 2 Sudeste 8 Sur 0 -- -- 89
2018-05-02 04:00:00 4.6 4 Sur 8 Sur 0 -- -- 78
2018-05-02 03:00:00 6 0 Calma 7 Oeste 0 -- -- 68
2018-05-02 02:00:00 7 0 Calma 6 Nordeste 0 -- -- 64
2018-05-02 01:00:00 7.4 2 Nordeste 5 Nordeste 0 -- -- 59
2018-05-02 00:00:00 8.3 3 Nordeste 6 Nordeste 0 -- -- 55
2018-05-01 23:00:00 9.8 3 Norte 8 Norte 0 -- -- 48
2018-05-01 22:00:00 11.2 3 Norte 10 Norte 0 -- -- 44
2018-05-01 21:00:00 12.9 4 Norte 20 Norte 0 -- -- 38
2018-05-01 20:00:00 14 9 Norte 20 Norte 0 -- -- 33
2018-05-01 19:00:00 15.8 10 Noroeste 24 Noroeste 0 -- -- 31
2018-05-01 18:00:00 17 9 Noroeste 27 Noroeste 0 -- -- 31
2018-05-01 17:00:00 16.4 10 Norte 24 Noroeste 0 -- -- 27
2018-05-01 16:00:00 15.6 8 Norte 24 Norte 0 -- -- 32
2018-05-01 15:00:00 14.6 9 Norte 27 Norte 0 -- -- 37
2018-05-01 14:00:00 13.8 13 Norte 27 Norte 0 -- -- 37
2018-05-01 13:00:00 13.1 7 Norte 20 Noroeste 0 -- -- 44
2018-05-01 12:00:00 12.2 5 Norte 20 Norte 0 -- -- 50
2018-05-01 11:00:00 10.3 6 Nordeste 17 Nordeste 0 -- -- 53
2018-05-01 10:00:00 8.7 3 Nordeste 18 Nordeste 0 -- -- 62
2018-05-01 09:00:00 6.1 8 Norte 17 Nordeste 0 -- -- 78
2018-05-01 08:00:00 2 0 Calma 5 Norte 0 -- -- 92
2018-05-01 07:00:00 2.2 0 Calma 4 Nordeste 0 -- -- 90
2018-05-01 06:00:00 2.8 0 Calma 9 Nordeste 0 -- -- 88
2018-05-01 05:00:00 3.6 3 Nordeste 10 Norte 0 -- -- 88
2018-05-01 04:00:00 3.3 4 Norte 8 Noroeste 0 -- -- 91
2018-05-01 03:00:00 3 2 Nordeste 5 Norte 0 -- -- 90
2018-05-01 02:00:00 3.3 0 Calma 4 Nordeste 0 -- -- 90
2018-05-01 01:00:00 3.5 3 Nordeste 6 Nordeste 0 -- -- 89
2018-05-01 00:00:00 4.5 0 Calma 5 Nordeste 0 -- -- 87
2018-04-30 23:00:00 5.7 2 Nordeste 3 Nordeste 0.2 -- -- 85
2018-04-30 22:00:00 6.3 0 Calma 4 Sudeste 0 -- -- 81
2018-04-30 21:00:00 7.3 2 Sur 23 Norte 0 -- -- 78
2018-04-30 20:00:00 8.7 12 Norte 31 Noroeste 0 -- -- 63
2018-04-30 19:00:00 10.2 7 Oeste 21 Oeste 0.2 -- -- 65
2018-04-30 18:00:00 8.2 0 Calma 36 Oeste 0 -- -- 79
2018-04-30 17:00:00 10.8 17 Oeste 38 Oeste 0 -- -- 62
2018-04-30 16:00:00 11.9 9 Oeste 26 Oeste 0 -- -- 47
2018-04-30 15:00:00 13.4 8 Oeste 27 Oeste 0 -- -- 46
2018-04-30 14:00:00 11.8 10 Sudoeste 24 Oeste 0.2 -- -- 50
2018-04-30 13:00:00 9.8 12 Oeste 29 Oeste 0 -- -- 71
2018-04-30 12:00:00 10.3 6 Sudoeste 20 Sudoeste 0 -- -- 58
2018-04-30 11:00:00 9.2 3 Oeste 9 Sudoeste 0 -- -- 69
2018-04-30 10:00:00 6.5 2 Sudoeste 6 Sur 0 -- -- 86
2018-04-30 09:00:00 5.3 0 Calma 6 Norte 0 -- -- 93
2018-04-30 08:00:00 4.2 0 Calma 6 Noroeste 0 -- -- 96
2018-04-30 07:00:00 4.4 3 Oeste 8 Noroeste 0 -- -- 97
2018-04-30 06:00:00 4.3 0 Calma 4 Sur 0 -- -- 97
2018-04-30 05:00:00 4.1 2 Sur 3 Sur 0 -- -- 96
2018-04-30 04:00:00 4.1 0 Calma 4 Sur 0 -- -- 94
2018-04-30 03:00:00 4.5 0 Calma 6 Sur 0 -- -- 93
2018-04-30 02:00:00 5.3 0 Calma 8 Oeste 0 -- -- 90
2018-04-30 01:00:00 6.5 2 Sudoeste 8 Oeste 0 -- -- 80
2018-04-30 00:00:00 6.9 2 Oeste 9 Sudoeste 0 -- -- 81
2018-04-29 23:00:00 7.6 6 Oeste 16 Sudoeste 0 -- -- 76
2018-04-29 22:00:00 8.9 6 Oeste 19 Oeste 0 -- -- 70
2018-04-29 21:00:00 9.7 12 Noroeste 34 Oeste 0 -- -- 66
2018-04-29 20:00:00 11.5 18 Oeste 47 Oeste 0 -- -- 49
2018-04-29 19:00:00 12.7 20 Oeste 44 Oeste 0 -- -- 48
2018-04-29 18:00:00 13.3 13 Oeste 51 Sudoeste 0 -- -- 52
2018-04-29 17:00:00 11.7 26 Oeste 50 Sudoeste 0.2 -- -- 60
2018-04-29 16:00:00 12.3 14 Oeste 45 Oeste 0 -- -- 57
2018-04-29 15:00:00 12.2 19 Oeste 48 Sudoeste 0 -- -- 58
2018-04-29 14:00:00 11.4 21 Oeste 46 Sudoeste 0 -- -- 63
2018-04-29 13:00:00 10.1 20 Oeste 59 Sudoeste 0 -- -- 67
2018-04-29 12:00:00 7.5 14 Oeste 38 Sudoeste 0.2 -- -- 84
2018-04-29 11:00:00 6.7 18 Oeste 45 Sudoeste 0 -- -- 87
2018-04-29 10:00:00 6.4 15 Oeste 34 Sudoeste 0.2 -- -- 90
2018-04-29 09:00:00 5.8 16 Oeste 35 Sudoeste 0.2 -- -- 92
2018-04-29 08:00:00 5.6 11 Sudoeste 29 Oeste 0 -- -- 92
2018-04-29 07:00:00 5.8 11 Sudoeste 40 Sudoeste 0.2 -- -- 92
2018-04-29 06:00:00 6.1 8 Sudoeste 32 Oeste 1.2 -- -- 90
2018-04-29 05:00:00 6.8 6 Oeste 39 Oeste 1.8 -- -- 91
2018-04-29 04:00:00 9.2 13 Sudoeste 31 Oeste 0 -- -- 69
2018-04-29 03:00:00 9.3 5 Sudoeste 13 Sudoeste 0 -- -- 67
2018-04-29 02:00:00 9.1 3 Sur 9 Oeste 0 -- -- 63
2018-04-29 01:00:00 10.6 2 Oeste 6 Noroeste 0 -- -- 51
2018-04-29 00:00:00 10.8 3 Norte 9 Norte 0 -- -- 50
2018-04-28 23:00:00 11.3 5 Norte 21 Noroeste 0 -- -- 50
2018-04-28 22:00:00 13 7 Noroeste 18 Noroeste 0 -- -- 48
2018-04-28 21:00:00 15.3 8 Oeste 22 Oeste 0 -- -- 42
2018-04-28 20:00:00 17.7 10 Oeste 27 Sudoeste 0 -- -- 40
2018-04-28 19:00:00 19 13 Oeste 31 Sudoeste 0 -- -- 42
2018-04-28 18:00:00 20.5 13 Oeste 35 Sudoeste 0 -- -- 44
2018-04-28 17:00:00 20.2 15 Sudoeste 38 Sudoeste 0 -- -- 43
2018-04-28 16:00:00 20.5 19 Sudoeste 38 Sudoeste 0 -- -- 43
2018-04-28 15:00:00 19.4 14 Sudoeste 30 Sur 0 -- -- 47
2018-04-28 14:00:00 18.7 9 Oeste 28 Sudoeste 0 -- -- 50
2018-04-28 13:00:00 17.5 10 Sudoeste 26 Sudoeste 0 -- -- 53
2018-04-28 12:00:00 15.2 8 Sudoeste 19 Sudoeste 0 -- -- 68
2018-04-28 11:00:00 13.4 5 Sur 11 Sur 0 -- -- 75
2018-04-28 10:00:00 11.7 6 Sur 11 Sur 0 -- -- 78
2018-04-28 09:00:00 10.6 6 Sur 10 Sur 0 -- -- 79
2018-04-28 08:00:00 9.6 4 Sudeste 10 Sudeste 0 -- -- 77
2018-04-28 07:00:00 9.4 6 Sudeste 9 Sudeste 0 -- -- 74
2018-04-28 06:00:00 10.3 3 Sudeste 6 Sudeste 0 -- -- 69
2018-04-28 05:00:00 10.6 3 Sudeste 6 Sudeste 0 -- -- 67
2018-04-28 04:00:00 11.3 0 Calma 7 Sudeste 0 -- -- 63
2018-04-28 03:00:00 11.6 4 Sudeste 7 Sur 0 -- -- 58
2018-04-28 02:00:00 12.2 4 Nordeste 6 Nordeste 0 -- -- 57
2018-04-28 01:00:00 13.5 3 Nordeste 6 Este 0 -- -- 51
2018-04-28 00:00:00 15 0 Calma 9 Oeste 0 -- -- 43
2018-04-27 23:00:00 15.9 2 Noroeste 9 Sudoeste 0 -- -- 39
2018-04-27 22:00:00 17.3 3 Sudoeste 17 Sudoeste 0 -- -- 35
2018-04-27 21:00:00 20.1 7 Sudoeste 19 Oeste 0 -- -- 28
2018-04-27 20:00:00 22.8 8 Oeste 29 Oeste 0 -- -- 25
2018-04-27 19:00:00 24.7 10 Oeste 32 Oeste 0 -- -- 23
2018-04-27 18:00:00 25.5 12 Oeste 31 Oeste 0 -- -- 25
2018-04-27 17:00:00 25.7 11 Oeste 33 Sudoeste 0 -- -- 26
2018-04-27 16:00:00 25.4 12 Oeste 33 Oeste 0 -- -- 30
2018-04-27 15:00:00 25.2 14 Oeste 29 Oeste 0 -- -- 33
2018-04-27 14:00:00 24 13 Oeste 31 Sudoeste 0 -- -- 39
2018-04-27 13:00:00 22.5 13 Oeste 29 Oeste 0 -- -- 50
2018-04-27 12:00:00 21.5 10 Oeste 30 Sudoeste 0 -- -- 61
2018-04-27 11:00:00 20.2 11 Sudoeste 28 Oeste 0 -- -- 67
2018-04-27 10:00:00 18 11 Sudoeste 27 Sudoeste 0 -- -- 79
2018-04-27 09:00:00 14.4 3 Sudoeste 7 Oeste 0 -- -- 92
2018-04-27 08:00:00 13.4 4 Sur 9 Sur 0 -- -- 90
2018-04-27 07:00:00 12.9 3 Sur 7 Sudeste 0 -- -- 86
2018-04-27 06:00:00 13.1 0 Calma 6 Sur 0 -- -- 76
2018-04-27 05:00:00 13.5 4 Sudeste 8 Sur 0 -- -- 70
2018-04-27 04:00:00 14.2 4 Sudeste 9 Sudeste 0 -- -- 65
2018-04-27 03:00:00 13.7 0 Calma 8 Nordeste 0 -- -- 66
2018-04-27 02:00:00 15.2 3 Nordeste 7 Nordeste 0 -- -- 61
2018-04-27 01:00:00 16.8 0 Calma 13 Sudeste 0 -- -- 55
2018-04-27 00:00:00 17.8 8 Sudeste 15 Sudeste 0 -- -- 51
2018-04-26 23:00:00 18.7 8 Sudeste 14 Sudeste 0 -- -- 48
2018-04-26 22:00:00 19.7 6 Sudeste 11 Sudeste 0 -- -- 44
2018-04-26 21:00:00 21.5 5 Sudeste 11 Sur 0 -- -- 42
2018-04-26 20:00:00 23.5 6 Sur 13 Sudoeste 0 -- -- 37
2018-04-26 19:00:00 24.7 6 Sur 14 Sudoeste 0 -- -- 35
2018-04-26 18:00:00 24.9 5 Sudoeste 15 Sudoeste 0 -- -- 31
2018-04-26 17:00:00 25.3 5 Sudoeste 19 Sudeste 0 -- -- 33
2018-04-26 16:00:00 24.1 5 Sudoeste 20 Sudoeste 0 -- -- 34
2018-04-26 15:00:00 23.3 9 Sur 17 Sur 0 -- -- 37
2018-04-26 14:00:00 22.4 9 Sur 21 Sur 0 -- -- 37
2018-04-26 13:00:00 21.4 8 Sur 24 Sudeste 0 -- -- 41
2018-04-26 12:00:00 20.8 9 Sudeste 18 Sudeste 0 -- -- 40
2018-04-26 11:00:00 19.1 2 Sudoeste 6 Sudoeste 0 -- -- 53
2018-04-26 10:00:00 15.9 3 Sudoeste 6 Sudoeste 0 -- -- 61
2018-04-26 09:00:00 12.8 0 Calma 5 Sudoeste 0 -- -- 69
2018-04-26 08:00:00 10.5 0 Calma 8 Nordeste 0 -- -- 69
2018-04-26 07:00:00 11.3 3 Norte 9 Este 0 -- -- 66
2018-04-26 06:00:00 11.2 4 Nordeste 11 Nordeste 0 -- -- 68
2018-04-26 05:00:00 11.6 5 Nordeste 12 Nordeste 0 -- -- 68
2018-04-26 04:00:00 11.9 4 Nordeste 10 Norte 0 -- -- 68
2018-04-26 03:00:00 13.2 4 Norte 9 Norte 0 -- -- 63
2018-04-26 02:00:00 13.7 3 Sudeste 9 Sudeste 0 -- -- 61
2018-04-26 01:00:00 14.1 4 Este 12 Sudeste 0 -- -- 60
2018-04-26 00:00:00 14.4 0 Calma 7 Sur 0 -- -- 60
2018-04-25 23:00:00 16 4 Sudeste 20 Este 0 -- -- 56
2018-04-25 22:00:00 16.8 10 Sudeste 33 Sudeste 0 -- -- 55
2018-04-25 21:00:00 18.9 15 Sudeste 31 Sudeste 0 -- -- 53
2018-04-25 20:00:00 20.7 15 Sudeste 36 Sudeste 0 -- -- 40
2018-04-25 19:00:00 22.2 18 Sudeste 34 Sudeste 0 -- -- 37
2018-04-25 18:00:00 24 15 Sudeste 32 Sudeste 0 -- -- 30
2018-04-25 17:00:00 24.6 18 Sudeste 32 Sudeste 0 -- -- 29
2018-04-25 16:00:00 23.9 16 Sudeste 28 Sur 0 -- -- 33
2018-04-25 15:00:00 24 16 Sudeste 30 Sudeste 0 -- -- 31
2018-04-25 14:00:00 25.2 12 Sudeste 24 Sudeste 0 -- -- 30
2018-04-25 13:00:00 24.3 5 Noroeste 13 Norte 0 -- -- 39
2018-04-25 12:00:00 22.1 6 Noroeste 16 Norte 0 -- -- 37
2018-04-25 11:00:00 19.4 8 Nordeste 15 Norte 0 -- -- 40
2018-04-25 10:00:00 17.7 5 Nordeste 11 Nordeste 0 -- -- 44
2018-04-25 09:00:00 12.7 0 Calma 10 Nordeste 0 -- -- 60
2018-04-25 08:00:00 12 6 Nordeste 14 Nordeste 0 -- -- 60
2018-04-25 07:00:00 11.9 0 Calma 8 Este 0 -- -- 62
2018-04-25 06:00:00 12.5 2 Este 13 Nordeste 0 -- -- 58
2018-04-25 05:00:00 13.1 5 Nordeste 14 Nordeste 0 -- -- 57
2018-04-25 04:00:00 13.2 5 Este 24 Sudeste 0 -- -- 58
2018-04-25 03:00:00 13.4 14 Este 26 Este 0 -- -- 59
2018-04-25 02:00:00 13.3 13 Sudeste 27 Sudeste 0 -- -- 60
2018-04-25 01:00:00 14.3 17 Sudeste 28 Este 0 -- -- 57
2018-04-25 00:00:00 15.1 15 Sudeste 28 Este 0 -- -- 54
2018-04-24 23:00:00 16.2 12 Este 25 Sudeste 0 -- -- 49
2018-04-24 22:00:00 17.1 12 Sudeste 27 Este 0 -- -- 49
2018-04-24 21:00:00 19 15 Sudeste 30 Sudeste 0 -- -- 44
2018-04-24 20:00:00 21.1 12 Sudeste 33 Sudeste 0 -- -- 41
2018-04-24 19:00:00 21.9 19 Este 36 Este 0 -- -- 34
2018-04-24 18:00:00 22.9 13 Sudeste 34 Este 0 -- -- 36
2018-04-24 17:00:00 23.2 20 Sudeste 41 Este 0 -- -- 36
2018-04-24 16:00:00 23.6 24 Sudeste 38 Este 0 -- -- 35
2018-04-24 15:00:00 22.2 23 Sudeste 41 Sudeste 0 -- -- 40
2018-04-24 14:00:00 21.3 25 Sudeste 45 Este 0 -- -- 39
2018-04-24 13:00:00 19.2 23 Sudeste 46 Sudeste 0 -- -- 46
2018-04-24 12:00:00 18.8 15 Sudeste 35 Sudeste 0 -- -- 43
2018-04-24 11:00:00 17.9 8 Este 19 Este 0 -- -- 45
2018-04-24 10:00:00 16.1 7 Este 22 Este 0 -- -- 50
2018-04-24 09:00:00 15.3 3 Nordeste 22 Este 0 -- -- 57
2018-04-24 08:00:00 15 9 Este 26 Este 0 -- -- 52
2018-04-24 07:00:00 14.8 3 Este 28 Este 0 -- -- 47
2018-04-24 06:00:00 14.2 5 Nordeste 20 Sudeste 0 -- -- 48
2018-04-24 05:00:00 13.3 12 Este 32 Este 0 -- -- 56
2018-04-24 04:00:00 12.7 8 Sudeste 22 Sudeste 0 -- -- 59
2018-04-24 03:00:00 13.8 4 Este 33 Sudeste 0 -- -- 47
2018-04-24 02:00:00 14 22 Este 41 Este 0 -- -- 49
2018-04-24 01:00:00 14.2 21 Este 36 Sudeste 0 -- -- 47
2018-04-24 00:00:00 15 18 Sudeste 36 Este 0 -- -- 47